sensor_id;sensor_type;location;lat;lon;timestamp;temperature;humidity
39095;DHT22;24840;47.508;19.376;2023-07-09T00:01:44;14.10;99.90
39095;DHT22;24840;47.508;19.376;2023-07-09T00:04:11;14.10;99.90
39095;DHT22;24840;47.508;19.376;2023-07-09T00:06:38;14.00;99.90
39095;DHT22;24840;47.508;19.376;2023-07-09T00:09:06;13.90;99.90
39095;DHT22;24840;47.508;19.376;2023-07-09T00:11:37;14.00;99.90
39095;DHT22;24840;47.508;19.376;2023-07-09T00:14:05;14.00;99.90
39095;DHT22;24840;47.508;19.376;2023-07-09T00:16:31;13.90;99.90
39095;DHT22;24840;47.508;19.376;2023-07-09T00:18:57;13.90;99.90
39095;DHT22;24840;47.508;19.376;2023-07-09T00:21:22;14.00;99.90
39095;DHT22;24840;47.508;19.376;2023-07-09T00:23:49;13.90;99.90
39095;DHT22;24840;47.508;19.376;2023-07-09T00:26:16;13.90;99.90
39095;DHT22;24840;47.508;19.376;2023-07-09T00:28:42;13.90;99.90
39095;DHT22;24840;47.508;19.376;2023-07-09T00:31:13;13.80;99.90
39095;DHT22;24840;47.508;19.376;2023-07-09T00:33:40;13.70;99.90
39095;DHT22;24840;47.508;19.376;2023-07-09T00:36:28;13.70;99.90
39095;DHT22;24840;47.508;19.376;2023-07-09T00:38:55;13.80;99.90
39095;DHT22;24840;47.508;19.376;2023-07-09T00:41:25;13.80;99.90
39095;DHT22;24840;47.508;19.376;2023-07-09T00:43:51;13.80;99.90
39095;DHT22;24840;47.508;19.376;2023-07-09T00:48:50;13.70;99.90
39095;DHT22;24840;47.508;19.376;2023-07-09T00:51:19;13.70;99.90
39095;DHT22;24840;47.508;19.376;2023-07-09T00:53:49;13.70;99.90
39095;DHT22;24840;47.508;19.376;2023-07-09T00:56:26;13.70;99.90
39095;DHT22;24840;47.508;19.376;2023-07-09T00:58:55;13.60;99.90
39095;DHT22;24840;47.508;19.376;2023-07-09T01:01:22;13.60;99.90
39095;DHT22;24840;47.508;19.376;2023-07-09T01:03:52;13.60;99.90
39095;DHT22;24840;47.508;19.376;2023-07-09T01:06:23;13.60;99.90
39095;DHT22;24840;47.508;19.376;2023-07-09T01:08:58;13.60;99.90
39095;DHT22;24840;47.508;19.376;2023-07-09T01:11:26;13.60;99.90
39095;DHT22;24840;47.508;19.376;2023-07-09T01:13:55;13.40;99.90
39095;DHT22;24840;47.508;19.376;2023-07-09T01:16:30;13.40;99.90
39095;DHT22;24840;47.508;19.376;2023-07-09T01:18:57;13.40;99.90
39095;DHT22;24840;47.508;19.376;2023-07-09T01:21:23;13.40;99.90
39095;DHT22;24840;47.508;19.376;2023-07-09T01:23:50;13.50;99.90
39095;DHT22;24840;47.508;19.376;2023-07-09T01:26:21;13.40;99.90
39095;DHT22;24840;47.508;19.376;2023-07-09T01:28:50;13.40;99.90
39095;DHT22;24840;47.508;19.376;2023-07-09T01:31:16;13.40;99.90
39095;DHT22;24840;47.508;19.376;2023-07-09T01:33:43;13.40;99.90
39095;DHT22;24840;47.508;19.376;2023-07-09T01:36:15;13.40;99.90
39095;DHT22;24840;47.508;19.376;2023-07-09T01:38:42;13.30;99.90
39095;DHT22;24840;47.508;19.376;2023-07-09T01:41:09;13.20;99.90
39095;DHT22;24840;47.508;19.376;2023-07-09T01:43:39;13.20;99.90
39095;DHT22;24840;47.508;19.376;2023-07-09T01:46:07;13.30;99.90
39095;DHT22;24840;47.508;19.376;2023-07-09T01:48:34;13.30;99.90
39095;DHT22;24840;47.508;19.376;2023-07-09T01:51:07;13.30;99.90
39095;DHT22;24840;47.508;19.376;2023-07-09T01:53:34;13.20;99.90
39095;DHT22;24840;47.508;19.376;2023-07-09T01:56:02;13.30;99.90
39095;DHT22;24840;47.508;19.376;2023-07-09T01:58:28;13.30;99.90
39095;DHT22;24840;47.508;19.376;2023-07-09T02:00:58;13.30;99.90
39095;DHT22;24840;47.508;19.376;2023-07-09T02:03:23;13.20;99.90
39095;DHT22;24840;47.508;19.376;2023-07-09T02:05:55;13.20;99.90
39095;DHT22;24840;47.508;19.376;2023-07-09T02:08:23;13.20;99.90
39095;DHT22;24840;47.508;19.376;2023-07-09T02:10:49;13.20;99.90
39095;DHT22;24840;47.508;19.376;2023-07-09T02:13:15;13.20;99.90
39095;DHT22;24840;47.508;19.376;2023-07-09T02:15:43;13.20;99.90
39095;DHT22;24840;47.508;19.376;2023-07-09T02:18:13;13.20;99.90
39095;DHT22;24840;47.508;19.376;2023-07-09T02:20:39;13.10;99.90
39095;DHT22;24840;47.508;19.376;2023-07-09T02:23:08;13.10;99.90
39095;DHT22;24840;47.508;19.376;2023-07-09T02:25:34;13.10;99.90
39095;DHT22;24840;47.508;19.376;2023-07-09T02:27:59;13.10;99.90
39095;DHT22;24840;47.508;19.376;2023-07-09T02:30:25;13.10;99.90
39095;DHT22;24840;47.508;19.376;2023-07-09T02:32:51;13.10;99.90
39095;DHT22;24840;47.508;19.376;2023-07-09T02:35:22;13.10;99.90
39095;DHT22;24840;47.508;19.376;2023-07-09T02:37:49;13.00;99.90
39095;DHT22;24840;47.508;19.376;2023-07-09T02:40:15;12.90;99.90
39095;DHT22;24840;47.508;19.376;2023-07-09T02:42:41;12.80;99.90
39095;DHT22;24840;47.508;19.376;2023-07-09T02:45:07;12.90;99.90
39095;DHT22;24840;47.508;19.376;2023-07-09T02:47:33;12.90;99.90
39095;DHT22;24840;47.508;19.376;2023-07-09T02:49:59;12.80;99.90
39095;DHT22;24840;47.508;19.376;2023-07-09T02:52:25;12.80;99.90
39095;DHT22;24840;47.508;19.376;2023-07-09T02:54:52;12.70;99.90
39095;DHT22;24840;47.508;19.376;2023-07-09T02:57:18;12.80;99.90
39095;DHT22;24840;47.508;19.376;2023-07-09T02:59:43;12.80;99.90
39095;DHT22;24840;47.508;19.376;2023-07-09T03:02:09;12.70;99.90
39095;DHT22;24840;47.508;19.376;2023-07-09T03:04:35;12.80;99.90
39095;DHT22;24840;47.508;19.376;2023-07-09T03:07:01;12.80;99.90
39095;DHT22;24840;47.508;19.376;2023-07-09T03:09:26;12.80;99.90
39095;DHT22;24840;47.508;19.376;2023-07-09T03:11:53;12.80;99.90
39095;DHT22;24840;47.508;19.376;2023-07-09T03:14:18;12.70;99.90
39095;DHT22;24840;47.508;19.376;2023-07-09T03:16:44;12.60;99.90
39095;DHT22;24840;47.508;19.376;2023-07-09T03:19:10;12.70;99.90
39095;DHT22;24840;47.508;19.376;2023-07-09T03:21:36;12.80;99.90
39095;DHT22;24840;47.508;19.376;2023-07-09T03:24:02;12.70;99.90
39095;DHT22;24840;47.508;19.376;2023-07-09T03:26:28;12.70;99.90
39095;DHT22;24840;47.508;19.376;2023-07-09T03:28:54;12.70;99.90
39095;DHT22;24840;47.508;19.376;2023-07-09T03:31:20;12.80;99.90
39095;DHT22;24840;47.508;19.376;2023-07-09T03:33:48;12.80;99.90
39095;DHT22;24840;47.508;19.376;2023-07-09T03:36:14;12.70;99.90
39095;DHT22;24840;47.508;19.376;2023-07-09T03:38:40;12.70;99.90
39095;DHT22;24840;47.508;19.376;2023-07-09T03:41:05;12.80;99.90
39095;DHT22;24840;47.508;19.376;2023-07-09T03:43:32;12.90;99.90
39095;DHT22;24840;47.508;19.376;2023-07-09T03:45:58;12.90;99.90
39095;DHT22;24840;47.508;19.376;2023-07-09T03:48:24;12.90;99.90
39095;DHT22;24840;47.508;19.376;2023-07-09T03:50:49;12.90;99.90
39095;DHT22;24840;47.508;19.376;2023-07-09T03:53:16;12.90;99.90
39095;DHT22;24840;47.508;19.376;2023-07-09T03:55:42;12.90;99.90
39095;DHT22;24840;47.508;19.376;2023-07-09T03:58:08;12.90;99.90
39095;DHT22;24840;47.508;19.376;2023-07-09T04:00:34;12.90;99.90
39095;DHT22;24840;47.508;19.376;2023-07-09T04:03:00;12.90;99.90
39095;DHT22;24840;47.508;19.376;2023-07-09T04:05:27;13.10;99.90
39095;DHT22;24840;47.508;19.376;2023-07-09T04:07:52;13.00;99.90
39095;DHT22;24840;47.508;19.376;2023-07-09T04:10:18;13.00;99.90
39095;DHT22;24840;47.508;19.376;2023-07-09T04:12:44;13.00;99.90
39095;DHT22;24840;47.508;19.376;2023-07-09T04:15:11;13.10;99.90
39095;DHT22;24840;47.508;19.376;2023-07-09T04:17:40;13.20;99.90
39095;DHT22;24840;47.508;19.376;2023-07-09T04:20:08;13.30;99.90
39095;DHT22;24840;47.508;19.376;2023-07-09T04:22:35;13.30;99.90
39095;DHT22;24840;47.508;19.376;2023-07-09T04:25:02;13.40;99.90
39095;DHT22;24840;47.508;19.376;2023-07-09T04:27:30;13.50;99.90
39095;DHT22;24840;47.508;19.376;2023-07-09T04:29:55;13.60;99.90
39095;DHT22;24840;47.508;19.376;2023-07-09T04:32:21;13.80;99.90
39095;DHT22;24840;47.508;19.376;2023-07-09T04:34:48;13.90;99.90
39095;DHT22;24840;47.508;19.376;2023-07-09T04:37:14;14.00;99.90
39095;DHT22;24840;47.508;19.376;2023-07-09T04:39:43;14.00;99.90
39095;DHT22;24840;47.508;19.376;2023-07-09T04:42:14;14.10;99.90
39095;DHT22;24840;47.508;19.376;2023-07-09T04:44:41;14.20;99.90
39095;DHT22;24840;47.508;19.376;2023-07-09T04:47:07;14.30;99.90
39095;DHT22;24840;47.508;19.376;2023-07-09T04:49:34;14.40;99.90
39095;DHT22;24840;47.508;19.376;2023-07-09T04:52:00;14.50;99.90
39095;DHT22;24840;47.508;19.376;2023-07-09T04:54:28;14.60;99.90
39095;DHT22;24840;47.508;19.376;2023-07-09T04:56:54;14.70;99.90
39095;DHT22;24840;47.508;19.376;2023-07-09T04:59:21;14.80;99.90
39095;DHT22;24840;47.508;19.376;2023-07-09T05:01:48;14.90;99.90
39095;DHT22;24840;47.508;19.376;2023-07-09T05:04:14;15.00;99.90
39095;DHT22;24840;47.508;19.376;2023-07-09T05:06:40;15.10;99.90
39095;DHT22;24840;47.508;19.376;2023-07-09T05:09:05;15.20;99.90
39095;DHT22;24840;47.508;19.376;2023-07-09T05:11:33;15.30;99.90
39095;DHT22;24840;47.508;19.376;2023-07-09T05:13:59;15.20;99.90
39095;DHT22;24840;47.508;19.376;2023-07-09T05:16:25;15.30;99.90
39095;DHT22;24840;47.508;19.376;2023-07-09T05:18:51;15.50;99.90
39095;DHT22;24840;47.508;19.376;2023-07-09T05:21:16;15.60;99.90
39095;DHT22;24840;47.508;19.376;2023-07-09T05:23:42;15.80;99.90
39095;DHT22;24840;47.508;19.376;2023-07-09T05:26:09;16.00;99.90
39095;DHT22;24840;47.508;19.376;2023-07-09T05:28:35;16.20;99.90
39095;DHT22;24840;47.508;19.376;2023-07-09T05:31:01;16.40;99.90
39095;DHT22;24840;47.508;19.376;2023-07-09T05:33:26;16.60;99.90
39095;DHT22;24840;47.508;19.376;2023-07-09T05:35:52;16.80;99.90
39095;DHT22;24840;47.508;19.376;2023-07-09T05:38:18;17.00;99.90
39095;DHT22;24840;47.508;19.376;2023-07-09T05:40:43;17.20;99.90
39095;DHT22;24840;47.508;19.376;2023-07-09T05:43:10;17.40;99.90
39095;DHT22;24840;47.508;19.376;2023-07-09T05:45:39;17.60;99.90
39095;DHT22;24840;47.508;19.376;2023-07-09T05:48:05;17.90;99.90
39095;DHT22;24840;47.508;19.376;2023-07-09T05:50:34;18.00;99.90
39095;DHT22;24840;47.508;19.376;2023-07-09T05:53:00;18.30;99.90
39095;DHT22;24840;47.508;19.376;2023-07-09T05:55:26;18.50;99.90
39095;DHT22;24840;47.508;19.376;2023-07-09T05:57:53;18.60;99.90
39095;DHT22;24840;47.508;19.376;2023-07-09T06:00:18;18.90;99.90
39095;DHT22;24840;47.508;19.376;2023-07-09T06:02:44;19.20;99.90
39095;DHT22;24840;47.508;19.376;2023-07-09T06:05:10;19.40;99.90
39095;DHT22;24840;47.508;19.376;2023-07-09T06:07:37;19.50;99.90
39095;DHT22;24840;47.508;19.376;2023-07-09T06:10:04;19.80;99.90
39095;DHT22;24840;47.508;19.376;2023-07-09T06:12:30;19.90;99.90
39095;DHT22;24840;47.508;19.376;2023-07-09T06:14:56;20.20;99.90
39095;DHT22;24840;47.508;19.376;2023-07-09T06:17:22;20.40;99.90
39095;DHT22;24840;47.508;19.376;2023-07-09T06:19:48;20.60;99.90
39095;DHT22;24840;47.508;19.376;2023-07-09T06:22:13;20.90;99.90
39095;DHT22;24840;47.508;19.376;2023-07-09T06:24:39;21.10;99.90
39095;DHT22;24840;47.508;19.376;2023-07-09T06:27:05;21.40;99.90
39095;DHT22;24840;47.508;19.376;2023-07-09T06:29:30;21.70;99.90
39095;DHT22;24840;47.508;19.376;2023-07-09T06:31:56;21.90;99.90
39095;DHT22;24840;47.508;19.376;2023-07-09T06:34:22;22.10;99.90
39095;DHT22;24840;47.508;19.376;2023-07-09T06:36:48;22.40;99.90
39095;DHT22;24840;47.508;19.376;2023-07-09T06:39:13;22.60;99.90
39095;DHT22;24840;47.508;19.376;2023-07-09T06:41:39;22.90;99.90
39095;DHT22;24840;47.508;19.376;2023-07-09T06:44:06;23.10;99.90
39095;DHT22;24840;47.508;19.376;2023-07-09T06:46:32;23.30;99.90
39095;DHT22;24840;47.508;19.376;2023-07-09T06:48:59;23.50;99.90
39095;DHT22;24840;47.508;19.376;2023-07-09T06:51:25;23.80;99.90
39095;DHT22;24840;47.508;19.376;2023-07-09T06:53:51;24.10;99.90
39095;DHT22;24840;47.508;19.376;2023-07-09T06:56:17;24.20;99.90
39095;DHT22;24840;47.508;19.376;2023-07-09T06:58:43;24.60;99.90
39095;DHT22;24840;47.508;19.376;2023-07-09T07:01:11;24.80;99.90
39095;DHT22;24840;47.508;19.376;2023-07-09T07:03:37;24.90;99.90
39095;DHT22;24840;47.508;19.376;2023-07-09T07:06:03;25.30;99.90
39095;DHT22;24840;47.508;19.376;2023-07-09T07:08:30;25.40;99.90
39095;DHT22;24840;47.508;19.376;2023-07-09T07:10:58;25.60;99.90
39095;DHT22;24840;47.508;19.376;2023-07-09T07:13:37;25.60;95.50
39095;DHT22;24840;47.508;19.376;2023-07-09T07:16:10;26.10;99.90
39095;DHT22;24840;47.508;19.376;2023-07-09T07:18:36;26.30;98.20
39095;DHT22;24840;47.508;19.376;2023-07-09T07:21:02;26.50;96.30
39095;DHT22;24840;47.508;19.376;2023-07-09T07:23:28;26.80;95.10
39095;DHT22;24840;47.508;19.376;2023-07-09T07:25:54;26.70;96.30
39095;DHT22;24840;47.508;19.376;2023-07-09T07:28:20;26.60;96.80
39095;DHT22;24840;47.508;19.376;2023-07-09T07:30:46;26.60;93.00
39095;DHT22;24840;47.508;19.376;2023-07-09T07:33:14;26.80;90.90
39095;DHT22;24840;47.508;19.376;2023-07-09T07:35:41;27.10;94.60
39095;DHT22;24840;47.508;19.376;2023-07-09T07:38:07;27.40;89.00
39095;DHT22;24840;47.508;19.376;2023-07-09T07:40:32;27.40;88.50
39095;DHT22;24840;47.508;19.376;2023-07-09T07:42:58;27.40;89.80
39095;DHT22;24840;47.508;19.376;2023-07-09T07:45:24;27.80;91.30
39095;DHT22;24840;47.508;19.376;2023-07-09T07:47:49;27.80;87.10
39095;DHT22;24840;47.508;19.376;2023-07-09T07:50:18;28.10;90.20
39095;DHT22;24840;47.508;19.376;2023-07-09T07:52:44;28.20;88.30
39095;DHT22;24840;47.508;19.376;2023-07-09T07:55:09;28.40;84.80
39095;DHT22;24840;47.508;19.376;2023-07-09T07:57:35;28.30;77.80
39095;DHT22;24840;47.508;19.376;2023-07-09T08:00:01;28.50;80.20
39095;DHT22;24840;47.508;19.376;2023-07-09T08:02:28;28.90;84.60
39095;DHT22;24840;47.508;19.376;2023-07-09T08:04:54;29.00;77.60
39095;DHT22;24840;47.508;19.376;2023-07-09T08:07:20;29.50;80.00
39095;DHT22;24840;47.508;19.376;2023-07-09T08:09:46;29.30;78.50
39095;DHT22;24840;47.508;19.376;2023-07-09T08:12:13;29.70;82.60
39095;DHT22;24840;47.508;19.376;2023-07-09T08:14:41;30.20;85.80
39095;DHT22;24840;47.508;19.376;2023-07-09T08:17:07;30.50;80.10
39095;DHT22;24840;47.508;19.376;2023-07-09T08:19:44;30.40;77.10
39095;DHT22;24840;47.508;19.376;2023-07-09T08:22:11;30.70;83.50
39095;DHT22;24840;47.508;19.376;2023-07-09T08:24:39;30.50;72.60
39095;DHT22;24840;47.508;19.376;2023-07-09T08:27:08;30.60;76.80
39095;DHT22;24840;47.508;19.376;2023-07-09T08:29:35;30.50;73.40
39095;DHT22;24840;47.508;19.376;2023-07-09T08:32:01;31.10;77.90
39095;DHT22;24840;47.508;19.376;2023-07-09T08:34:27;31.30;78.30
39095;DHT22;24840;47.508;19.376;2023-07-09T08:36:53;31.20;71.70
39095;DHT22;24840;47.508;19.376;2023-07-09T08:39:19;30.70;69.80
39095;DHT22;24840;47.508;19.376;2023-07-09T08:41:59;30.50;69.90
39095;DHT22;24840;47.508;19.376;2023-07-09T08:47:18;30.90;71.40
39095;DHT22;24840;47.508;19.376;2023-07-09T08:49:50;31.40;70.70
39095;DHT22;24840;47.508;19.376;2023-07-09T08:52:39;31.30;65.60
39095;DHT22;24840;47.508;19.376;2023-07-09T08:55:19;31.40;67.90
39095;DHT22;24840;47.508;19.376;2023-07-09T08:57:48;32.20;68.90
39095;DHT22;24840;47.508;19.376;2023-07-09T09:00:31;32.50;67.00
39095;DHT22;24840;47.508;19.376;2023-07-09T09:03:08;32.60;64.00
39095;DHT22;24840;47.508;19.376;2023-07-09T09:05:41;33.10;67.60
39095;DHT22;24840;47.508;19.376;2023-07-09T09:11:41;33.00;65.70
39095;DHT22;24840;47.508;19.376;2023-07-09T09:13:48;33.40;61.00
39095;DHT22;24840;47.508;19.376;2023-07-09T09:16:35;33.40;63.60
39095;DHT22;24840;47.508;19.376;2023-07-09T09:19:01;33.10;59.60
39095;DHT22;24840;47.508;19.376;2023-07-09T09:21:36;33.40;61.50
39095;DHT22;24840;47.508;19.376;2023-07-09T09:24:14;33.50;61.10
39095;DHT22;24840;47.508;19.376;2023-07-09T09:26:44;34.00;58.60
39095;DHT22;24840;47.508;19.376;2023-07-09T09:29:12;33.90;62.40
39095;DHT22;24840;47.508;19.376;2023-07-09T09:31:39;34.40;57.30
39095;DHT22;24840;47.508;19.376;2023-07-09T09:34:05;34.40;61.10
39095;DHT22;24840;47.508;19.376;2023-07-09T09:36:31;34.50;59.30
39095;DHT22;24840;47.508;19.376;2023-07-09T09:39:03;34.10;54.90
39095;DHT22;24840;47.508;19.376;2023-07-09T09:41:33;33.30;56.70
39095;DHT22;24840;47.508;19.376;2023-07-09T09:44:01;32.80;52.80
39095;DHT22;24840;47.508;19.376;2023-07-09T09:46:30;33.50;54.60
39095;DHT22;24840;47.508;19.376;2023-07-09T09:49:00;33.90;56.70
39095;DHT22;24840;47.508;19.376;2023-07-09T09:51:27;34.70;58.50
39095;DHT22;24840;47.508;19.376;2023-07-09T09:53:58;34.90;56.40
39095;DHT22;24840;47.508;19.376;2023-07-09T09:56:28;35.00;54.80
39095;DHT22;24840;47.508;19.376;2023-07-09T09:58:57;34.90;53.20
39095;DHT22;24840;47.508;19.376;2023-07-09T10:01:31;34.50;54.90
39095;DHT22;24840;47.508;19.376;2023-07-09T10:03:58;35.10;57.80
39095;DHT22;24840;47.508;19.376;2023-07-09T10:06:35;35.80;50.50
39095;DHT22;24840;47.508;19.376;2023-07-09T10:09:26;36.00;51.60
39095;DHT22;24840;47.508;19.376;2023-07-09T10:19:56;35.50;50.60
39095;DHT22;24840;47.508;19.376;2023-07-09T10:22:57;35.10;55.10
39095;DHT22;24840;47.508;19.376;2023-07-09T10:25:53;34.70;54.30
39095;DHT22;24840;47.508;19.376;2023-07-09T10:34:17;35.60;50.70
39095;DHT22;24840;47.508;19.376;2023-07-09T10:36:30;36.00;54.00
39095;DHT22;24840;47.508;19.376;2023-07-09T10:39:08;35.30;48.70
39095;DHT22;24840;47.508;19.376;2023-07-09T10:41:37;34.30;51.90
39095;DHT22;24840;47.508;19.376;2023-07-09T10:44:16;34.80;47.50
39095;DHT22;24840;47.508;19.376;2023-07-09T10:46:49;35.10;53.20
39095;DHT22;24840;47.508;19.376;2023-07-09T10:49:18;34.30;49.30
39095;DHT22;24840;47.508;19.376;2023-07-09T10:51:52;33.00;52.70
39095;DHT22;24840;47.508;19.376;2023-07-09T10:54:28;32.00;52.70
39095;DHT22;24840;47.508;19.376;2023-07-09T10:57:56;31.80;58.40
39095;DHT22;24840;47.508;19.376;2023-07-09T10:59:56;33.90;59.70
39095;DHT22;24840;47.508;19.376;2023-07-09T11:05:03;35.10;52.00
39095;DHT22;24840;47.508;19.376;2023-07-09T11:07:39;35.80;51.70
39095;DHT22;24840;47.508;19.376;2023-07-09T11:10:34;34.50;51.30
39095;DHT22;24840;47.508;19.376;2023-07-09T11:13:05;35.10;54.80
39095;DHT22;24840;47.508;19.376;2023-07-09T11:15:39;36.30;54.10
39095;DHT22;24840;47.508;19.376;2023-07-09T11:18:10;36.40;48.30
39095;DHT22;24840;47.508;19.376;2023-07-09T11:20:43;36.10;52.60
39095;DHT22;24840;47.508;19.376;2023-07-09T11:23:23;37.10;53.10
39095;DHT22;24840;47.508;19.376;2023-07-09T11:26:10;36.70;47.20
39095;DHT22;24840;47.508;19.376;2023-07-09T11:28:40;35.30;50.90
39095;DHT22;24840;47.508;19.376;2023-07-09T11:31:08;35.00;51.20
39095;DHT22;24840;47.508;19.376;2023-07-09T11:33:48;36.50;52.50
39095;DHT22;24840;47.508;19.376;2023-07-09T11:36:25;37.20;52.20
39095;DHT22;24840;47.508;19.376;2023-07-09T11:38:52;37.10;52.40
39095;DHT22;24840;47.508;19.376;2023-07-09T11:41:38;37.70;49.90
39095;DHT22;24840;47.508;19.376;2023-07-09T11:44:17;38.20;49.10
39095;DHT22;24840;47.508;19.376;2023-07-09T11:47:24;36.70;47.10
39095;DHT22;24840;47.508;19.376;2023-07-09T11:52:32;34.50;51.10
39095;DHT22;24840;47.508;19.376;2023-07-09T11:55:14;35.60;56.80
39095;DHT22;24840;47.508;19.376;2023-07-09T11:58:01;36.90;47.70
39095;DHT22;24840;47.508;19.376;2023-07-09T12:00:36;35.60;45.40
39095;DHT22;24840;47.508;19.376;2023-07-09T12:03:03;35.80;48.10
39095;DHT22;24840;47.508;19.376;2023-07-09T12:05:30;36.20;45.50
39095;DHT22;24840;47.508;19.376;2023-07-09T12:07:59;34.60;47.50
39095;DHT22;24840;47.508;19.376;2023-07-09T12:10:31;33.60;48.40
39095;DHT22;24840;47.508;19.376;2023-07-09T12:12:58;34.40;52.00
39095;DHT22;24840;47.508;19.376;2023-07-09T12:15:29;33.70;54.20
39095;DHT22;24840;47.508;19.376;2023-07-09T12:18:00;33.00;56.70
39095;DHT22;24840;47.508;19.376;2023-07-09T12:20:30;33.00;56.90
39095;DHT22;24840;47.508;19.376;2023-07-09T12:22:57;33.00;56.40
39095;DHT22;24840;47.508;19.376;2023-07-09T12:25:33;33.40;57.80
39095;DHT22;24840;47.508;19.376;2023-07-09T12:27:59;34.50;59.50
39095;DHT22;24840;47.508;19.376;2023-07-09T12:30:25;35.30;52.50
39095;DHT22;24840;47.508;19.376;2023-07-09T12:32:51;36.30;50.70
39095;DHT22;24840;47.508;19.376;2023-07-09T12:35:20;35.40;50.80
39095;DHT22;24840;47.508;19.376;2023-07-09T12:37:47;34.50;50.50
39095;DHT22;24840;47.508;19.376;2023-07-09T12:40:19;35.10;52.70
39095;DHT22;24840;47.508;19.376;2023-07-09T12:42:46;35.80;49.80
39095;DHT22;24840;47.508;19.376;2023-07-09T12:45:17;36.30;51.40
39095;DHT22;24840;47.508;19.376;2023-07-09T12:47:45;37.10;48.40
39095;DHT22;24840;47.508;19.376;2023-07-09T12:50:27;35.60;48.70
39095;DHT22;24840;47.508;19.376;2023-07-09T12:53:02;35.20;49.50
39095;DHT22;24840;47.508;19.376;2023-07-09T12:55:29;35.10;51.20
39095;DHT22;24840;47.508;19.376;2023-07-09T12:58:02;35.50;52.40
39095;DHT22;24840;47.508;19.376;2023-07-09T13:00:31;35.70;48.70
39095;DHT22;24840;47.508;19.376;2023-07-09T13:02:58;34.00;48.90
39095;DHT22;24840;47.508;19.376;2023-07-09T13:05:25;33.10;54.50
39095;DHT22;24840;47.508;19.376;2023-07-09T13:08:14;33.20;51.30
39095;DHT22;24840;47.508;19.376;2023-07-09T13:10:41;34.00;57.20
39095;DHT22;24840;47.508;19.376;2023-07-09T13:13:13;34.50;54.40
39095;DHT22;24840;47.508;19.376;2023-07-09T13:15:44;34.10;50.00
39095;DHT22;24840;47.508;19.376;2023-07-09T13:18:15;34.30;54.60
39095;DHT22;24840;47.508;19.376;2023-07-09T13:20:43;35.10;51.50
39095;DHT22;24840;47.508;19.376;2023-07-09T13:25:40;36.00;50.00
39095;DHT22;24840;47.508;19.376;2023-07-09T13:30:45;35.10;48.00
39095;DHT22;24840;47.508;19.376;2023-07-09T13:33:11;34.50;49.30
39095;DHT22;24840;47.508;19.376;2023-07-09T13:35:37;33.50;53.80
39095;DHT22;24840;47.508;19.376;2023-07-09T13:38:14;33.50;57.00
39095;DHT22;24840;47.508;19.376;2023-07-09T13:40:40;34.30;53.30
39095;DHT22;24840;47.508;19.376;2023-07-09T13:43:14;33.80;52.90
39095;DHT22;24840;47.508;19.376;2023-07-09T13:45:40;34.50;52.10
39095;DHT22;24840;47.508;19.376;2023-07-09T13:48:13;34.80;55.50
39095;DHT22;24840;47.508;19.376;2023-07-09T13:50:39;34.50;51.10
39095;DHT22;24840;47.508;19.376;2023-07-09T13:53:16;34.40;52.10
39095;DHT22;24840;47.508;19.376;2023-07-09T13:55:42;34.70;48.50
39095;DHT22;24840;47.508;19.376;2023-07-09T13:58:10;35.40;52.60
39095;DHT22;24840;47.508;19.376;2023-07-09T14:00:36;34.90;49.60
39095;DHT22;24840;47.508;19.376;2023-07-09T14:03:02;34.40;54.80
39095;DHT22;24840;47.508;19.376;2023-07-09T14:05:28;34.00;54.40
39095;DHT22;24840;47.508;19.376;2023-07-09T14:07:54;34.00;53.30
39095;DHT22;24840;47.508;19.376;2023-07-09T14:10:19;33.60;56.30
39095;DHT22;24840;47.508;19.376;2023-07-09T14:12:47;33.90;53.20
39095;DHT22;24840;47.508;19.376;2023-07-09T14:15:18;34.60;56.70
39095;DHT22;24840;47.508;19.376;2023-07-09T14:17:45;34.50;49.10
39095;DHT22;24840;47.508;19.376;2023-07-09T14:20:16;34.80;55.70
39095;DHT22;24840;47.508;19.376;2023-07-09T14:22:42;35.40;52.70
39095;DHT22;24840;47.508;19.376;2023-07-09T14:25:22;35.80;52.20
39095;DHT22;24840;47.508;19.376;2023-07-09T14:27:49;35.40;49.20
39095;DHT22;24840;47.508;19.376;2023-07-09T14:30:17;35.10;50.90
39095;DHT22;24840;47.508;19.376;2023-07-09T14:32:45;35.60;51.70
39095;DHT22;24840;47.508;19.376;2023-07-09T14:35:15;35.50;49.80
39095;DHT22;24840;47.508;19.376;2023-07-09T14:37:42;35.90;47.00
39095;DHT22;24840;47.508;19.376;2023-07-09T14:40:08;35.90;50.40
39095;DHT22;24840;47.508;19.376;2023-07-09T14:42:35;35.60;46.50
39095;DHT22;24840;47.508;19.376;2023-07-09T14:45:01;36.00;50.10
39095;DHT22;24840;47.508;19.376;2023-07-09T14:47:29;33.90;49.20
39095;DHT22;24840;47.508;19.376;2023-07-09T14:49:54;33.30;54.40
39095;DHT22;24840;47.508;19.376;2023-07-09T14:52:21;33.00;54.80
39095;DHT22;24840;47.508;19.376;2023-07-09T14:54:48;32.40;56.90
39095;DHT22;24840;47.508;19.376;2023-07-09T14:57:21;32.80;59.40
39095;DHT22;24840;47.508;19.376;2023-07-09T14:59:48;33.50;55.80
39095;DHT22;24840;47.508;19.376;2023-07-09T15:04:55;33.70;57.70
39095;DHT22;24840;47.508;19.376;2023-07-09T15:07:22;34.10;59.20
39095;DHT22;24840;47.508;19.376;2023-07-09T15:09:48;34.10;59.70
39095;DHT22;24840;47.508;19.376;2023-07-09T15:12:19;34.20;54.10
39095;DHT22;24840;47.508;19.376;2023-07-09T15:14:47;34.50;56.50
39095;DHT22;24840;47.508;19.376;2023-07-09T15:17:13;34.80;53.30
39095;DHT22;24840;47.508;19.376;2023-07-09T15:19:39;34.30;51.90
39095;DHT22;24840;47.508;19.376;2023-07-09T15:22:28;34.50;52.00
39095;DHT22;24840;47.508;19.376;2023-07-09T15:24:55;34.30;52.00
39095;DHT22;24840;47.508;19.376;2023-07-09T15:27:20;34.10;55.70
39095;DHT22;24840;47.508;19.376;2023-07-09T15:29:46;34.20;53.10
39095;DHT22;24840;47.508;19.376;2023-07-09T15:32:12;32.80;53.90
39095;DHT22;24840;47.508;19.376;2023-07-09T15:34:37;32.90;50.70
39095;DHT22;24840;47.508;19.376;2023-07-09T15:37:12;32.70;54.40
39095;DHT22;24840;47.508;19.376;2023-07-09T15:39:39;32.70;51.60
39095;DHT22;24840;47.508;19.376;2023-07-09T15:42:14;33.30;55.70
39095;DHT22;24840;47.508;19.376;2023-07-09T15:44:40;33.40;56.60
39095;DHT22;24840;47.508;19.376;2023-07-09T15:47:15;33.50;56.80
39095;DHT22;24840;47.508;19.376;2023-07-09T15:49:41;33.30;52.40
39095;DHT22;24840;47.508;19.376;2023-07-09T15:52:08;33.20;59.10
39095;DHT22;24840;47.508;19.376;2023-07-09T15:54:33;32.60;58.40
39095;DHT22;24840;47.508;19.376;2023-07-09T15:57:00;31.80;63.30
39095;DHT22;24840;47.508;19.376;2023-07-09T15:59:31;31.40;58.60
39095;DHT22;24840;47.508;19.376;2023-07-09T16:01:58;31.00;58.50